Time;durP1;ratioP1;P1;durP2;ratioP2;P2;SDS_P1;SDS_P2;PMS_P1;PMS_P2;Temp;Humidity;BMP_temperature;BMP_pressure;BME280_temperature;BME280_humidity;BME280_pressure;Samples;Min_cycle;Max_cycle;Signal;HPM_P1;HPM_P2
2021/01/27 00:01:45;;;;;;;0.70;0.33;;;2.40;99.90;;;;;;5027719;28;20194;-85
2021/01/27 00:04:11;;;;;;;0.27;0.27;;;2.20;99.90;;;;;;5036316;28;20178;-85
2021/01/27 00:06:37;;;;;;;0.53;0.43;;;2.00;99.90;;;;;;5043951;28;20203;-85
2021/01/27 00:09:03;;;;;;;0.20;0.20;;;1.90;99.90;;;;;;5044574;28;20242;-85
2021/01/27 00:11:29;;;;;;;0.10;0.10;;;2.10;99.90;;;;;;5034806;28;20191;-84
2021/01/27 00:13:54;;;;;;;3.03;1.80;;;2.10;99.90;;;;;;5043632;28;20191;-85
2021/01/27 00:16:20;;;;;;;0.10;0.10;;;2.00;99.90;;;;;;5043901;28;20279;-85
2021/01/27 00:18:45;;;;;;;0.30;0.30;;;2.10;99.90;;;;;;5037593;28;20255;-85
2021/01/27 00:21:11;;;;;;;0.37;0.37;;;2.20;99.90;;;;;;5048589;28;20592;-85
2021/01/27 00:23:36;;;;;;;0.20;0.20;;;2.30;99.90;;;;;;5033749;28;20590;-84
2021/01/27 00:26:02;;;;;;;0.20;0.20;;;2.30;99.90;;;;;;5044240;28;20209;-84
2021/01/27 00:28:27;;;;;;;0.10;0.10;;;2.30;99.90;;;;;;5035799;28;20183;-84
2021/01/27 00:30:53;;;;;;;0.37;0.30;;;2.30;99.90;;;;;;5028786;28;20587;-84
2021/01/27 00:33:19;;;;;;;0.10;0.10;;;2.50;99.90;;;;;;5033467;28;20274;-85
2021/01/27 00:35:49;;;;;;;0.53;0.53;;;2.50;99.90;;;;;;5043790;28;20275;-84
2021/01/27 00:38:24;;;;;;;0.33;0.33;;;2.50;99.90;;;;;;5028064;28;20182;-85
2021/01/27 00:40:50;;;;;;;0.23;0.23;;;2.40;99.90;;;;;;5042175;28;20224;-87
2021/01/27 00:43:17;;;;;;;0.30;0.30;;;2.40;99.90;;;;;;5028665;28;20183;-85
2021/01/27 00:45:42;;;;;;;0.20;0.20;;;2.40;99.90;;;;;;5032986;28;20199;-84
2021/01/27 00:48:09;;;;;;;0.40;0.40;;;2.40;99.90;;;;;;5021241;28;20382;-85
2021/01/27 00:50:35;;;;;;;1.03;0.70;;;2.50;99.90;;;;;;5043655;28;20586;-85
2021/01/27 00:53:01;;;;;;;0.40;0.40;;;2.30;99.90;;;;;;5039915;28;20186;-85
2021/01/27 00:55:29;;;;;;;0.60;0.40;;;2.00;99.90;;;;;;5031310;28;20206;-84
2021/01/27 00:57:55;;;;;;;0.40;0.37;;;2.00;99.90;;;;;;5038928;28;20239;-84
2021/01/27 01:00:28;;;;;;;0.30;0.30;;;1.90;99.90;;;;;;5040290;28;20674;-85
2021/01/27 01:03:16;;;;;;;0.10;0.10;;;1.90;99.90;;;;;;5038394;28;20198;-85
2021/01/27 01:05:44;;;;;;;0.03;0.03;;;1.90;99.90;;;;;;5033216;28;20175;-85
2021/01/27 01:08:12;;;;;;;0.00;0.00;;;2.00;99.90;;;;;;5041248;28;20189;-84
2021/01/27 01:10:41;;;;;;;0.30;0.30;;;2.10;99.90;;;;;;5040470;28;20210;-85
2021/01/27 01:13:09;;;;;;;0.40;0.17;;;2.10;99.90;;;;;;5043207;28;20187;-84
2021/01/27 01:15:35;;;;;;;0.20;0.20;;;2.30;99.90;;;;;;5042142;28;20268;-85
2021/01/27 01:18:01;;;;;;;0.20;0.20;;;2.30;99.90;;;;;;5023076;28;20184;-85
2021/01/27 01:20:27;;;;;;;0.10;0.10;;;2.40;99.90;;;;;;5048468;28;20812;-85
2021/01/27 01:22:55;;;;;;;0.20;0.20;;;2.50;99.90;;;;;;5043891;28;20265;-85
2021/01/27 01:25:23;;;;;;;0.10;0.10;;;2.50;99.90;;;;;;5035329;28;20201;-85
2021/01/27 01:27:49;;;;;;;0.10;0.10;;;2.50;99.90;;;;;;5021982;28;20686;-85
2021/01/27 01:30:19;;;;;;;0.67;0.57;;;2.50;99.90;;;;;;5029128;28;20207;-85
2021/01/27 01:32:45;;;;;;;0.80;0.80;;;2.60;99.90;;;;;;5016186;28;20198;-84
2021/01/27 01:35:13;;;;;;;0.33;0.33;;;2.60;99.90;;;;;;5026015;28;20185;-86
2021/01/27 01:37:41;;;;;;;0.40;0.40;;;2.60;99.90;;;;;;5027725;28;20215;-85
2021/01/27 01:40:19;;;;;;;0.63;0.63;;;2.60;99.90;;;;;;5044930;28;20203;-84
2021/01/27 01:42:44;;;;;;;0.20;0.20;;;2.60;99.90;;;;;;5039571;28;20546;-85
2021/01/27 01:45:29;;;;;;;0.30;0.30;;;2.60;99.90;;;;;;5045337;28;20193;-85
2021/01/27 01:47:59;;;;;;;0.73;0.20;;;2.60;99.90;;;;;;5035239;28;20289;-85
2021/01/27 01:50:25;;;;;;;0.17;0.17;;;2.50;99.90;;;;;;5041770;28;20694;-85
2021/01/27 01:52:54;;;;;;;0.50;0.50;;;2.30;99.90;;;;;;5032305;28;20186;-85
2021/01/27 01:55:21;;;;;;;1.40;1.40;;;2.30;99.90;;;;;;5033853;28;20183;-85
2021/01/27 01:57:48;;;;;;;0.17;0.17;;;2.20;99.90;;;;;;5041503;28;20266;-84
2021/01/27 02:00:15;;;;;;;0.30;0.30;;;2.20;99.90;;;;;;5033259;28;20198;-85
2021/01/27 02:02:41;;;;;;;0.30;0.30;;;2.20;99.90;;;;;;5034409;28;20723;-84
2021/01/27 02:05:17;;;;;;;3.00;0.63;;;2.10;99.90;;;;;;5030398;28;20179;-85
2021/01/27 02:07:43;;;;;;;0.00;0.00;;;2.10;99.90;;;;;;5030959;28;20185;-84
2021/01/27 02:10:09;;;;;;;0.53;0.20;;;1.80;99.90;;;;;;5032812;28;20210;-85
2021/01/27 02:13:19;;;;;;;0.10;0.03;;;1.80;99.90;;;;;;5040044;28;20689;-87
2021/01/27 02:16:07;;;;;;;0.17;0.17;;;1.90;99.90;;;;;;5043707;28;20216;-84
2021/01/27 02:19:24;;;;;;;0.43;0.20;;;1.80;99.90;;;;;;5034295;28;20182;-84
2021/01/27 02:22:03;;;;;;;0.53;0.53;;;1.60;99.90;;;;;;5059153;28;20296;-85
2021/01/27 02:24:58;;;;;;;0.30;0.30;;;1.70;99.90;;;;;;5028181;28;20524;-85
2021/01/27 02:27:31;;;;;;;0.50;0.50;;;1.80;99.90;;;;;;5046924;28;20187;-85
2021/01/27 02:30:31;;;;;;;0.40;0.37;;;1.80;99.90;;;;;;5043285;28;20233;-84
2021/01/27 02:33:05;;;;;;;0.30;0.30;;;1.70;99.90;;;;;;5024650;28;20186;-85
2021/01/27 02:35:38;;;;;;;0.60;0.40;;;1.80;99.90;;;;;;5032998;28;20217;-84
2021/01/27 02:38:13;;;;;;;0.40;0.40;;;1.90;99.90;;;;;;5046014;28;20182;-85
2021/01/27 02:40:43;;;;;;;0.20;0.20;;;2.00;99.90;;;;;;5022115;28;20655;-85
2021/01/27 02:43:21;;;;;;;1.40;1.17;;;2.00;99.90;;;;;;5045918;28;20182;-84
2021/01/27 02:45:56;;;;;;;0.20;0.20;;;2.10;99.90;;;;;;5044167;28;20186;-85
2021/01/27 02:48:29;;;;;;;0.20;0.20;;;2.10;99.90;;;;;;5044984;28;20190;-85
2021/01/27 02:51:00;;;;;;;0.67;0.20;;;2.10;99.90;;;;;;5045182;28;20202;-84
2021/01/27 02:53:33;;;;;;;0.57;0.47;;;2.20;99.90;;;;;;5039043;28;20189;-84
2021/01/27 02:56:08;;;;;;;0.17;0.17;;;2.20;99.90;;;;;;5041243;28;20223;-84
2021/01/27 02:58:39;;;;;;;0.37;0.17;;;2.30;99.90;;;;;;5041010;28;20185;-84
2021/01/27 03:01:23;;;;;;;0.10;0.10;;;2.30;99.90;;;;;;5037493;28;20192;-84
2021/01/27 03:03:57;;;;;;;0.10;0.10;;;2.30;99.90;;;;;;5037335;28;20180;-84
2021/01/27 03:06:23;;;;;;;0.10;0.10;;;2.30;99.90;;;;;;5021037;28;20300;-84
2021/01/27 03:09:25;;;;;;;0.30;0.30;;;2.30;99.90;;;;;;5032102;28;20227;-85
2021/01/27 03:11:51;;;;;;;0.10;0.10;;;2.40;99.90;;;;;;5032251;28;20549;-84
2021/01/27 03:14:16;;;;;;;0.13;0.13;;;2.50;99.90;;;;;;5048091;28;20277;-85
2021/01/27 03:16:47;;;;;;;0.10;0.10;;;2.50;99.90;;;;;;5039498;28;20551;-85
2021/01/27 03:19:22;;;;;;;0.20;0.20;;;2.60;99.90;;;;;;5030858;28;20225;-84
2021/01/27 03:21:59;;;;;;;0.27;0.20;;;2.70;99.90;;;;;;5035028;28;20179;-85
2021/01/27 03:24:26;;;;;;;0.30;0.30;;;2.70;99.90;;;;;;5033478;28;20182;-84
2021/01/27 03:27:13;;;;;;;0.10;0.10;;;2.70;99.90;;;;;;5047440;28;20217;-85
2021/01/27 03:30:09;;;;;;;1.10;0.47;;;2.70;99.90;;;;;;5042540;28;20654;-84
2021/01/27 03:32:39;;;;;;;0.40;0.20;;;2.70;99.90;;;;;;5023381;28;20187;-85
2021/01/27 03:35:25;;;;;;;0.10;0.10;;;2.60;99.90;;;;;;5025664;28;20189;-85
2021/01/27 03:38:14;;;;;;;0.20;0.20;;;2.60;99.90;;;;;;5030430;28;20221;-84
2021/01/27 03:40:43;;;;;;;0.30;0.30;;;2.60;99.90;;;;;;5032777;28;20221;-85
2021/01/27 03:43:34;;;;;;;0.73;0.60;;;2.70;99.90;;;;;;5033892;28;20293;-85
2021/01/27 03:46:11;;;;;;;0.20;0.20;;;2.70;99.90;;;;;;5026597;28;20189;-85
2021/01/27 03:48:39;;;;;;;0.23;0.23;;;2.80;99.90;;;;;;5018467;28;20179;-85
2021/01/27 03:51:05;;;;;;;0.63;0.63;;;2.70;99.90;;;;;;5039349;28;20190;-84
2021/01/27 03:53:31;;;;;;;0.20;0.20;;;2.80;99.90;;;;;;5041805;28;20773;-85
2021/01/27 03:56:08;;;;;;;0.40;0.23;;;2.80;99.90;;;;;;5043693;28;20687;-84
2021/01/27 03:58:38;;;;;;;0.20;0.20;;;2.80;99.90;;;;;;5038402;28;20702;-86
2021/01/27 04:01:19;;;;;;;0.20;0.20;;;2.80;99.90;;;;;;5033053;28;20216;-84
2021/01/27 04:03:45;;;;;;;0.60;0.53;;;2.80;99.90;;;;;;5030464;28;20236;-83
2021/01/27 04:06:12;;;;;;;0.20;0.20;;;2.80;99.90;;;;;;5042334;28;20192;-85
2021/01/27 04:08:38;;;;;;;1.00;0.63;;;2.80;99.90;;;;;;5040576;28;20248;-84
2021/01/27 04:11:05;;;;;;;1.83;0.20;;;2.70;99.90;;;;;;5039009;28;20198;-85
2021/01/27 04:13:31;;;;;;;0.50;0.50;;;2.80;99.90;;;;;;5036928;28;20190;-85
2021/01/27 04:15:59;;;;;;;0.10;0.10;;;2.80;99.90;;;;;;5037592;28;20274;-85
2021/01/27 04:18:25;;;;;;;0.40;0.40;;;2.80;99.90;;;;;;5028219;28;20206;-85
2021/01/27 04:20:50;;;;;;;0.43;0.30;;;2.70;99.90;;;;;;5043885;28;20275;-85
2021/01/27 04:23:16;;;;;;;0.30;0.30;;;2.80;99.90;;;;;;5053801;28;20271;-85
2021/01/27 04:25:42;;;;;;;0.20;0.20;;;2.80;99.90;;;;;;5025792;28;20197;-84
2021/01/27 04:28:08;;;;;;;0.23;0.23;;;2.90;99.90;;;;;;5036263;28;20206;-87
2021/01/27 04:30:35;;;;;;;0.63;0.60;;;3.00;99.90;;;;;;5032462;28;20234;-84
2021/01/27 04:33:03;;;;;;;0.73;0.50;;;3.00;99.90;;;;;;5025689;28;20652;-85
2021/01/27 04:35:29;;;;;;;1.07;1.07;;;3.00;99.90;;;;;;5026920;28;20222;-85
2021/01/27 04:37:55;;;;;;;0.40;0.40;;;3.00;99.90;;;;;;5033614;28;20174;-85
2021/01/27 04:40:36;;;;;;;0.10;0.10;;;3.00;99.90;;;;;;5039726;28;20204;-84
2021/01/27 04:43:04;;;;;;;0.10;0.10;;;3.00;99.90;;;;;;5036628;28;20215;-84
2021/01/27 04:45:30;;;;;;;0.30;0.30;;;2.90;99.90;;;;;;5035504;28;20191;-84
2021/01/27 04:48:13;;;;;;;0.10;0.10;;;3.00;99.90;;;;;;5043325;28;20554;-85
2021/01/27 04:50:45;;;;;;;0.00;0.00;;;2.90;99.90;;;;;;5041579;28;20234;-84
2021/01/27 04:53:16;;;;;;;0.30;0.30;;;3.00;99.90;;;;;;5036327;28;20179;-85
2021/01/27 04:56:16;;;;;;;0.93;0.70;;;3.00;99.90;;;;;;5045241;28;20210;-85
2021/01/27 04:58:59;;;;;;;1.07;0.33;;;3.10;99.90;;;;;;5033850;28;20202;-85
2021/01/27 05:01:54;;;;;;;1.07;0.40;;;3.10;99.90;;;;;;5039209;28;20178;-86
2021/01/27 05:04:46;;;;;;;0.30;0.30;;;3.10;99.90;;;;;;5044075;28;20176;-84
2021/01/27 05:07:45;;;;;;;0.10;0.10;;;3.00;99.90;;;;;;5037225;28;20197;-85
2021/01/27 05:10:18;;;;;;;0.47;0.47;;;2.90;99.90;;;;;;5045739;28;20581;-85
2021/01/27 05:12:53;;;;;;;0.50;0.50;;;3.00;99.90;;;;;;5047104;28;20186;-85
2021/01/27 05:15:22;;;;;;;0.40;0.40;;;3.00;99.90;;;;;;5032319;28;20602;-84
2021/01/27 05:17:48;;;;;;;0.10;0.10;;;3.00;99.90;;;;;;5040561;28;20193;-85
2021/01/27 05:20:17;;;;;;;0.60;0.60;;;3.00;99.90;;;;;;5046021;28;20206;-89
2021/01/27 05:22:43;;;;;;;0.40;0.40;;;3.00;99.90;;;;;;5032931;28;20713;-84
2021/01/27 05:25:33;;;;;;;0.20;0.20;;;3.00;99.90;;;;;;5037847;28;20255;-84
2021/01/27 05:27:59;;;;;;;0.50;0.50;;;2.90;99.90;;;;;;5026138;28;20719;-84
2021/01/27 05:30:34;;;;;;;0.47;0.47;;;2.90;99.90;;;;;;5046676;28;20264;-84
2021/01/27 05:33:01;;;;;;;0.60;0.60;;;3.00;99.90;;;;;;5047437;28;20185;-85
2021/01/27 05:35:34;;;;;;;0.20;0.20;;;3.00;99.90;;;;;;5029068;28;20211;-85
2021/01/27 05:38:17;;;;;;;0.10;0.10;;;3.00;99.90;;;;;;5038009;28;20548;-84
2021/01/27 05:41:20;;;;;;;0.23;0.23;;;2.90;99.90;;;;;;5028837;28;21276;-84
2021/01/27 05:43:48;;;;;;;2.50;0.77;;;3.00;99.90;;;;;;5038900;28;20218;-85
2021/01/27 05:46:33;;;;;;;0.07;0.07;;;2.90;99.90;;;;;;5023426;28;20183;-85
2021/01/27 05:48:59;;;;;;;0.20;0.20;;;3.00;99.90;;;;;;5024605;28;20274;-85
2021/01/27 05:51:27;;;;;;;0.70;0.33;;;2.90;99.90;;;;;;5044711;28;20186;-85
2021/01/27 05:54:18;;;;;;;0.30;0.20;;;2.90;99.90;;;;;;5038069;28;20218;-85
2021/01/27 05:56:44;;;;;;;0.70;0.47;;;2.80;99.90;;;;;;5044221;28;20577;-85
2021/01/27 05:59:25;;;;;;;0.40;0.20;;;2.90;99.90;;;;;;5034467;28;20208;-84
2021/01/27 06:01:59;;;;;;;0.20;0.20;;;2.90;99.90;;;;;;5038678;28;20665;-85
2021/01/27 06:04:26;;;;;;;0.30;0.30;;;3.00;99.90;;;;;;5050642;28;20244;-85
2021/01/27 06:06:51;;;;;;;0.10;0.10;;;3.00;99.90;;;;;;5037408;28;20190;-85
2021/01/27 06:09:38;;;;;;;0.20;0.20;;;3.00;99.90;;;;;;5041571;28;20579;-85
2021/01/27 06:12:05;;;;;;;0.97;0.97;;;2.90;99.90;;;;;;5044835;28;20182;-85
2021/01/27 06:14:31;;;;;;;1.50;1.40;;;2.90;99.90;;;;;;5038442;28;20198;-85
2021/01/27 06:16:57;;;;;;;0.10;0.10;;;2.90;99.90;;;;;;5027319;28;20301;-87
2021/01/27 06:19:25;;;;;;;0.20;0.20;;;2.90;99.90;;;;;;5034535;28;20687;-87
2021/01/27 06:22:12;;;;;;;1.00;0.30;;;3.00;99.90;;;;;;5026654;28;20191;-87
2021/01/27 06:25:07;;;;;;;0.20;0.20;;;3.10;99.90;;;;;;5044743;28;20264;-87
2021/01/27 06:28:23;;;;;;;0.80;0.80;;;3.00;99.90;;;;;;5024664;28;20277;-84
2021/01/27 06:31:25;;;;;;;0.50;0.40;;;2.80;99.90;;;;;;5019864;28;20249;-84
2021/01/27 06:34:35;;;;;;;0.40;0.40;;;2.80;99.90;;;;;;5035872;28;20182;-84
2021/01/27 06:37:33;;;;;;;0.37;0.37;;;2.80;99.90;;;;;;5016946;28;20573;-84
2021/01/27 06:40:05;;;;;;;0.30;0.30;;;2.60;99.90;;;;;;5035118;28;20209;-84
2021/01/27 06:42:37;;;;;;;0.80;0.30;;;2.40;99.90;;;;;;5032600;28;20186;-85
2021/01/27 06:45:06;;;;;;;1.10;1.10;;;2.30;99.90;;;;;;5026340;28;20182;-85
2021/01/27 06:48:02;;;;;;;0.20;0.20;;;2.30;99.90;;;;;;5028831;28;20209;-89
2021/01/27 06:51:03;;;;;;;0.00;0.00;;;2.10;99.90;;;;;;5035966;28;20211;-88
2021/01/27 06:53:56;;;;;;;0.10;0.10;;;2.30;99.90;;;;;;5039726;28;20675;-84
2021/01/27 07:00:24;;;;;;;0.10;0.10;;;2.60;99.90;;;;;;5040420;28;20245;-85
2021/01/27 07:03:26;;;;;;;0.10;0.10;;;2.80;99.90;;;;;;5011110;28;20197;-84
2021/01/27 07:06:06;;;;;;;0.10;0.10;;;2.70;99.90;;;;;;5024547;28;20193;-85
2021/01/27 07:09:01;;;;;;;0.10;0.10;;;2.80;99.90;;;;;;5034904;28;20178;-85
2021/01/27 07:11:29;;;;;;;0.20;0.20;;;2.60;99.90;;;;;;5036379;28;20212;-86
2021/01/27 07:14:02;;;;;;;0.30;0.30;;;2.50;99.90;;;;;;5045323;28;20198;-86
2021/01/27 07:16:42;;;;;;;0.93;0.47;;;2.60;99.90;;;;;;5046828;28;20265;-85
2021/01/27 07:19:14;;;;;;;0.10;0.10;;;2.70;99.90;;;;;;5031010;28;20265;-85
2021/01/27 07:21:50;;;;;;;0.10;0.10;;;2.80;99.90;;;;;;5034221;28;20194;-85
2021/01/27 07:24:59;;;;;;;0.40;0.40;;;2.80;99.90;;;;;;5037987;28;20196;-85
2021/01/27 07:27:25;;;;;;;0.17;0.17;;;2.90;99.90;;;;;;5022746;28;20183;-86
2021/01/27 07:30:13;;;;;;;0.10;0.10;;;2.80;99.90;;;;;;5039610;28;20207;-85
2021/01/27 07:32:45;;;;;;;0.67;0.47;;;2.90;99.90;;;;;;5030761;28;20209;-87
2021/01/27 07:35:13;;;;;;;2.90;0.30;;;3.00;99.90;;;;;;5046241;28;20534;-87
2021/01/27 07:37:58;;;;;;;1.00;0.73;;;3.10;99.90;;;;;;5037816;28;20207;-85
2021/01/27 07:40:24;;;;;;;0.83;0.30;;;3.10;99.90;;;;;;5023292;28;20195;-85
2021/01/27 07:43:22;;;;;;;0.77;0.77;;;3.20;99.90;;;;;;5042724;28;20194;-85
2021/01/27 07:45:51;;;;;;;0.10;0.10;;;3.20;99.90;;;;;;5034189;28;20189;-85
2021/01/27 07:48:45;;;;;;;0.10;0.10;;;3.20;99.90;;;;;;5030367;28;20218;-85
2021/01/27 07:51:38;;;;;;;0.53;0.40;;;3.20;99.90;;;;;;5042905;28;20226;-86
2021/01/27 07:54:10;;;;;;;0.10;0.10;;;3.20;99.90;;;;;;5027469;28;20179;-85
2021/01/27 07:57:07;;;;;;;0.20;0.20;;;3.30;99.90;;;;;;5027851;28;20243;-85
2021/01/27 07:59:44;;;;;;;0.10;0.10;;;3.30;99.90;;;;;;5031088;28;20202;-87
2021/01/27 08:02:18;;;;;;;0.43;0.43;;;3.40;99.90;;;;;;5047047;28;20303;-85
2021/01/27 08:04:55;;;;;;;2.50;0.50;;;3.40;99.90;;;;;;5020194;28;20211;-86
2021/01/27 08:07:32;;;;;;;0.10;0.10;;;3.40;99.90;;;;;;5028962;28;20283;-86
2021/01/27 08:10:15;;;;;;;0.43;0.40;;;3.40;99.90;;;;;;5023686;28;20214;-84
2021/01/27 08:12:44;;;;;;;0.20;0.20;;;3.40;99.90;;;;;;5035698;28;20183;-85
2021/01/27 08:15:25;;;;;;;0.23;0.20;;;3.40;99.90;;;;;;5049018;28;20289;-87
2021/01/27 08:17:54;;;;;;;1.07;0.67;;;3.30;99.90;;;;;;5048182;28;20604;-86
2021/01/27 08:20:24;;;;;;;0.27;0.27;;;3.30;99.90;;;;;;5063777;28;20211;-87
2021/01/27 08:23:21;;;;;;;0.17;0.17;;;3.30;99.90;;;;;;5034401;28;20168;-86
2021/01/27 08:25:49;;;;;;;0.33;0.23;;;3.40;99.90;;;;;;5056436;28;20565;-87
2021/01/27 08:28:33;;;;;;;0.73;0.40;;;3.40;99.90;;;;;;5052961;28;20180;-87
2021/01/27 08:31:12;;;;;;;0.73;0.67;;;3.40;99.90;;;;;;5035020;28;20213;-87
2021/01/27 08:33:46;;;;;;;0.07;0.07;;;3.40;99.90;;;;;;5041681;28;20195;-86
2021/01/27 08:36:33;;;;;;;0.93;0.30;;;3.40;99.90;;;;;;5041888;28;20237;-87
2021/01/27 08:38:58;;;;;;;0.20;0.20;;;3.40;99.90;;;;;;5049083;28;20561;-87
2021/01/27 08:41:45;;;;;;;0.30;0.30;;;3.30;99.90;;;;;;5050479;28;20193;-87
2021/01/27 08:44:19;;;;;;;0.20;0.20;;;3.40;99.90;;;;;;5054585;28;20209;-87
2021/01/27 08:46:57;;;;;;;0.60;0.60;;;3.30;99.90;;;;;;5044459;28;20185;-87
2021/01/27 08:49:41;;;;;;;0.93;0.40;;;3.20;99.90;;;;;;5044467;28;20639;-87
2021/01/27 08:52:33;;;;;;;0.10;0.10;;;3.30;99.90;;;;;;5042480;28;20205;-87
2021/01/27 08:54:59;;;;;;;0.67;0.30;;;3.30;99.90;;;;;;5021518;28;20203;-87
2021/01/27 08:57:31;;;;;;;0.10;0.10;;;3.30;99.90;;;;;;5041526;28;20204;-86
2021/01/27 09:00:11;;;;;;;0.10;0.10;;;3.30;99.90;;;;;;5030978;28;20809;-86
2021/01/27 09:02:46;;;;;;;0.60;0.60;;;3.30;99.90;;;;;;5037684;28;20178;-88
2021/01/27 09:05:32;;;;;;;0.20;0.20;;;3.30;99.90;;;;;;5036301;28;20186;-87
2021/01/27 09:08:03;;;;;;;0.10;0.10;;;3.40;99.90;;;;;;5043205;28;20649;-87
2021/01/27 09:10:34;;;;;;;0.10;0.10;;;3.30;99.90;;;;;;5045096;28;20243;-86
2021/01/27 09:13:28;;;;;;;0.10;0.10;;;3.30;99.90;;;;;;5041495;28;20178;-87
2021/01/27 09:16:01;;;;;;;0.10;0.10;;;3.30;99.90;;;;;;5040648;28;20204;-91
2021/01/27 09:18:27;;;;;;;0.97;0.40;;;3.30;99.90;;;;;;5025554;28;20184;-87
2021/01/27 09:20:53;;;;;;;0.10;0.10;;;3.40;99.90;;;;;;5028154;28;20287;-86
2021/01/27 09:23:31;;;;;;;0.20;0.20;;;3.40;99.90;;;;;;5025427;28;20218;-87
2021/01/27 09:26:00;;;;;;;0.17;0.17;;;3.40;99.90;;;;;;5034932;28;20242;-87
2021/01/27 09:28:26;;;;;;;0.20;0.20;;;3.50;99.90;;;;;;5030680;28;20220;-87
2021/01/27 09:30:53;;;;;;;0.20;0.20;;;3.40;99.90;;;;;;5026420;28;20219;-87
2021/01/27 09:33:34;;;;;;;0.13;0.13;;;3.40;99.90;;;;;;5019749;28;20190;-87
2021/01/27 09:36:25;;;;;;;0.10;0.10;;;3.60;99.90;;;;;;5031985;28;20206;-87
2021/01/27 09:38:52;;;;;;;3.60;0.87;;;3.50;99.90;;;;;;5029835;28;20215;-87
2021/01/27 09:41:25;;;;;;;0.37;0.37;;;3.50;99.90;;;;;;5019265;28;20183;-87
2021/01/27 09:43:51;;;;;;;0.40;0.40;;;3.50;99.90;;;;;;5036365;28;20186;-87
2021/01/27 09:46:31;;;;;;;0.57;0.57;;;3.50;99.90;;;;;;5044373;28;20177;-87
2021/01/27 09:49:07;;;;;;;0.67;0.67;;;3.50;99.90;;;;;;5038295;28;20182;-88
2021/01/27 09:51:33;;;;;;;0.10;0.10;;;3.50;99.90;;;;;;5054179;28;20206;-87
2021/01/27 09:54:18;;;;;;;1.13;0.80;;;3.30;99.90;;;;;;5036098;28;20264;-87
2021/01/27 09:56:45;;;;;;;0.03;0.03;;;3.30;99.90;;;;;;5023713;28;20207;-87
2021/01/27 09:59:16;;;;;;;0.20;0.20;;;3.30;99.90;;;;;;5046785;28;20697;-86
2021/01/27 10:01:47;;;;;;;0.20;0.20;;;3.40;99.90;;;;;;5020376;28;20555;-87
2021/01/27 10:04:29;;;;;;;0.33;0.33;;;3.40;99.90;;;;;;5034268;28;20186;-86
2021/01/27 10:07:12;;;;;;;0.20;0.20;;;3.50;99.90;;;;;;5035735;28;20685;-87
2021/01/27 10:09:43;;;;;;;0.93;0.20;;;3.50;99.90;;;;;;5042550;28;20674;-87
2021/01/27 10:12:26;;;;;;;0.20;0.20;;;3.30;99.90;;;;;;5046384;28;20225;-88
2021/01/27 10:15:19;;;;;;;0.23;0.23;;;3.30;99.90;;;;;;5038865;28;20258;-86
2021/01/27 10:17:48;;;;;;;0.20;0.20;;;3.30;99.90;;;;;;5031509;28;20205;-87
2021/01/27 10:20:23;;;;;;;0.50;0.50;;;3.30;99.90;;;;;;5040370;28;20206;-87
2021/01/27 10:23:06;;;;;;;0.10;0.10;;;3.30;99.90;;;;;;5038311;28;20217;-88
2021/01/27 10:25:40;;;;;;;0.10;0.10;;;3.20;99.90;;;;;;5043758;28;20676;-87
2021/01/27 10:28:11;;;;;;;0.10;0.10;;;3.20;99.90;;;;;;5051614;28;20256;-86
2021/01/27 10:30:58;;;;;;;0.10;0.10;;;3.30;99.90;;;;;;5025911;28;20250;-89
2021/01/27 10:33:44;;;;;;;0.10;0.10;;;3.30;99.90;;;;;;5030340;28;20197;-88
2021/01/27 10:36:37;;;;;;;0.10;0.10;;;3.20;99.90;;;;;;5045686;28;20234;-87
2021/01/27 10:39:29;;;;;;;0.20;0.20;;;3.10;99.90;;;;;;5026756;28;20262;-88
2021/01/27 10:42:15;;;;;;;0.43;0.10;;;3.20;99.90;;;;;;5047321;28;20186;-86
2021/01/27 10:44:42;;;;;;;0.20;0.20;;;3.20;99.90;;;;;;5036669;28;20658;-85
2021/01/27 10:47:07;;;;;;;0.20;0.20;;;3.20;99.90;;;;;;5041823;28;20179;-88
2021/01/27 10:49:40;;;;;;;0.30;0.30;;;3.20;99.90;;;;;;5040862;28;20225;-88
2021/01/27 10:52:08;;;;;;;0.20;0.20;;;3.20;99.90;;;;;;5038212;28;20185;-86
2021/01/27 10:54:34;;;;;;;0.30;0.30;;;3.00;99.90;;;;;;5038018;28;20195;-88
2021/01/27 10:56:59;;;;;;;0.90;0.17;;;3.00;99.90;;;;;;5024736;28;20213;-82
2021/01/27 10:59:25;;;;;;;1.60;1.23;;;3.10;99.90;;;;;;5030230;28;20210;-84
2021/01/27 11:01:51;;;;;;;0.77;0.77;;;3.10;99.90;;;;;;5025040;28;20330;-84
2021/01/27 11:04:17;;;;;;;0.17;0.17;;;3.30;99.90;;;;;;5027056;28;22872;-84
2021/01/27 11:06:43;;;;;;;0.67;0.40;;;3.60;99.90;;;;;;5030185;28;20238;-81
2021/01/27 11:09:09;;;;;;;0.27;0.27;;;3.70;99.90;;;;;;5023618;28;20268;-84
2021/01/27 11:11:36;;;;;;;0.20;0.20;;;3.70;99.90;;;;;;5036828;28;20202;-84
2021/01/27 11:14:03;;;;;;;0.23;0.23;;;3.60;99.90;;;;;;5025037;28;20281;-83
2021/01/27 11:16:29;;;;;;;0.20;0.20;;;3.50;99.90;;;;;;5028096;28;20731;-82
2021/01/27 11:18:54;;;;;;;1.23;0.30;;;3.50;99.90;;;;;;5018731;28;20206;-83
2021/01/27 11:21:20;;;;;;;0.20;0.20;;;3.50;99.90;;;;;;5026035;28;20594;-84
2021/01/27 11:23:45;;;;;;;0.13;0.13;;;3.50;99.90;;;;;;5027839;28;20217;-83
2021/01/27 11:26:18;;;;;;;0.20;0.20;;;3.60;99.90;;;;;;5021660;28;20194;-82
2021/01/27 11:28:45;;;;;;;0.10;0.10;;;3.50;99.90;;;;;;5021374;28;20197;-84
2021/01/27 11:31:12;;;;;;;0.40;0.40;;;3.50;99.90;;;;;;5049206;28;20181;-82
2021/01/27 11:33:37;;;;;;;0.10;0.10;;;3.50;99.90;;;;;;5033025;28;20234;-84
2021/01/27 11:36:03;;;;;;;0.17;0.13;;;3.50;99.90;;;;;;5018218;28;20226;-84
2021/01/27 11:38:29;;;;;;;0.53;0.53;;;3.30;99.90;;;;;;5019506;28;20193;-84
2021/01/27 11:40:54;;;;;;;0.57;0.10;;;3.30;99.90;;;;;;5022182;28;20710;-84
2021/01/27 11:43:21;;;;;;;0.10;0.10;;;3.20;99.90;;;;;;5013596;28;20195;-84
2021/01/27 11:45:46;;;;;;;0.10;0.10;;;3.30;99.90;;;;;;5026429;28;20208;-84
2021/01/27 11:48:12;;;;;;;0.23;0.23;;;3.30;99.90;;;;;;5018278;28;20214;-82
2021/01/27 11:50:37;;;;;;;1.13;0.97;;;3.30;99.90;;;;;;5032880;28;20198;-85
2021/01/27 11:53:03;;;;;;;0.10;0.10;;;3.30;99.90;;;;;;5030128;28;20566;-84
2021/01/27 11:55:29;;;;;;;0.20;0.20;;;3.40;99.90;;;;;;5044782;28;20242;-84
2021/01/27 11:57:54;;;;;;;0.20;0.20;;;3.40;99.90;;;;;;5032158;28;20191;-84
2021/01/27 12:00:21;;;;;;;0.13;0.13;;;3.40;99.90;;;;;;5025169;28;20206;-83
2021/01/27 12:02:47;;;;;;;0.33;0.33;;;3.50;99.90;;;;;;5028904;28;20194;-84
2021/01/27 12:05:15;;;;;;;0.10;0.10;;;3.60;99.90;;;;;;5039217;28;20566;-84
2021/01/27 12:07:42;;;;;;;0.10;0.10;;;3.60;99.90;;;;;;5029434;28;20292;-84
2021/01/27 12:10:10;;;;;;;1.07;0.97;;;3.60;99.90;;;;;;5032060;28;20207;-84
2021/01/27 12:12:35;;;;;;;0.10;0.10;;;3.60;99.90;;;;;;5023684;28;20191;-84
2021/01/27 12:15:04;;;;;;;0.53;0.10;;;3.60;99.90;;;;;;5024077;28;20545;-83
2021/01/27 12:17:29;;;;;;;0.57;0.40;;;3.60;99.90;;;;;;5018607;28;20230;-84
2021/01/27 12:19:55;;;;;;;0.30;0.30;;;3.70;99.90;;;;;;5033286;28;20209;-84
2021/01/27 12:22:20;;;;;;;0.10;0.10;;;3.80;99.90;;;;;;5025115;28;20203;-84
2021/01/27 12:24:46;;;;;;;0.30;0.30;;;3.80;99.90;;;;;;5032940;28;20186;-85
2021/01/27 12:27:11;;;;;;;0.10;0.10;;;3.90;99.90;;;;;;5028965;28;20187;-84
2021/01/27 12:29:37;;;;;;;0.10;0.10;;;3.80;99.90;;;;;;5014962;28;20217;-83
2021/01/27 12:32:03;;;;;;;0.20;0.10;;;3.70;99.90;;;;;;5035605;28;20232;-83
2021/01/27 12:34:28;;;;;;;0.10;0.10;;;3.60;99.90;;;;;;5034798;28;20198;-84
2021/01/27 12:36:54;;;;;;;0.20;0.20;;;3.60;99.90;;;;;;5031728;28;20202;-81
2021/01/27 12:39:19;;;;;;;0.13;0.13;;;3.60;99.90;;;;;;5038016;28;20214;-82
2021/01/27 12:41:47;;;;;;;0.20;0.20;;;3.70;99.90;;;;;;5036524;28;20277;-82
2021/01/27 12:44:13;;;;;;;0.20;0.20;;;3.80;99.90;;;;;;5043972;28;20183;-81
2021/01/27 12:46:39;;;;;;;0.30;0.30;;;3.90;99.90;;;;;;5029843;28;20200;-81
2021/01/27 12:49:04;;;;;;;0.10;0.10;;;3.90;99.90;;;;;;5034923;28;20582;-82
2021/01/27 12:51:30;;;;;;;0.03;0.03;;;3.90;99.90;;;;;;5032633;28;20190;-82
2021/01/27 12:53:56;;;;;;;1.60;0.20;;;3.90;99.90;;;;;;5034593;28;20192;-82
2021/01/27 12:56:22;;;;;;;0.80;0.80;;;4.00;99.90;;;;;;5031547;28;20210;-82
2021/01/27 12:58:47;;;;;;;1.13;0.40;;;4.00;99.90;;;;;;5032848;28;20190;-81
2021/01/27 13:01:13;;;;;;;0.27;0.27;;;3.90;99.90;;;;;;5032001;28;20183;-80
2021/01/27 13:03:39;;;;;;;0.10;0.10;;;3.90;99.90;;;;;;5034232;28;20190;-80
2021/01/27 13:06:05;;;;;;;0.10;0.10;;;4.00;99.90;;;;;;5041921;28;20191;-82
2021/01/27 13:08:30;;;;;;;0.20;0.20;;;3.90;99.90;;;;;;5053271;28;20192;-82
2021/01/27 13:10:56;;;;;;;0.50;0.50;;;3.90;99.90;;;;;;5051949;28;20703;-82
2021/01/27 13:13:22;;;;;;;0.40;0.40;;;3.90;99.90;;;;;;5053160;28;20194;-81
2021/01/27 13:15:48;;;;;;;0.57;0.57;;;3.90;99.90;;;;;;5048149;28;20225;-82
2021/01/27 13:18:14;;;;;;;0.37;0.30;;;3.90;99.90;;;;;;5045738;28;20183;-83
2021/01/27 13:20:39;;;;;;;0.20;0.20;;;4.00;99.90;;;;;;5036618;28;20215;-81
2021/01/27 13:23:05;;;;;;;0.60;0.50;;;4.00;99.90;;;;;;5033737;28;20183;-81
2021/01/27 13:25:31;;;;;;;0.10;0.10;;;3.90;99.90;;;;;;5048334;28;20189;-82
2021/01/27 13:27:56;;;;;;;0.20;0.20;;;3.90;99.90;;;;;;5035296;28;20201;-82
2021/01/27 13:30:23;;;;;;;0.20;0.20;;;3.80;99.90;;;;;;5035015;28;20294;-82
2021/01/27 13:32:49;;;;;;;0.10;0.10;;;3.80;99.90;;;;;;5032953;28;20214;-83
2021/01/27 13:35:18;;;;;;;0.10;0.10;;;3.90;99.90;;;;;;5039087;28;20554;-83